Time;durP1;ratioP1;P1;durP2;ratioP2;P2;SDS_P1;SDS_P2;PMS_P1;PMS_P2;Temp;Humidity;BMP_temperature;BMP_pressure;BME280_temperature;BME280_humidity;BME280_pressure;Samples;Min_cycle;Max_cycle;Signal;HPM_P1;HPM_P2
2022/05/21 00:01:23;;;;;;;3.83;2.20;;;435.20;2355.20;;;;;;5035342;28;20025;-55
2022/05/21 00:03:49;;;;;;;3.30;2.05;;;435.20;2355.20;;;;;;5036943;28;20426;-56
2022/05/21 00:06:15;;;;;;;3.33;1.88;;;435.20;2355.20;;;;;;5036919;28;20108;-55
2022/05/21 00:08:40;;;;;;;3.47;1.80;;;410.40;2355.20;;;;;;5037195;28;20025;-53
2022/05/21 00:11:06;;;;;;;3.72;2.38;;;410.50;2355.20;;;;;;5036472;28;20539;-53
2022/05/21 00:13:32;;;;;;;3.47;1.80;;;410.30;2355.20;;;;;;5036761;28;20037;-55
2022/05/21 00:15:57;;;;;;;4.60;2.45;;;410.30;2355.20;;;;;;5036705;28;20407;-55
2022/05/21 00:18:23;;;;;;;4.00;2.20;;;410.30;2355.20;;;;;;5036639;28;20108;-55
2022/05/21 00:20:49;;;;;;;3.03;2.13;;;410.30;2355.20;;;;;;5036633;28;20021;-55
2022/05/21 00:23:20;;;;;;;3.20;2.15;;;410.30;2355.20;;;;;;5036164;28;20044;-54
2022/05/21 00:25:48;;;;;;;3.25;2.17;;;410.20;2355.20;;;;;;5036210;28;20100;-55
2022/05/21 00:28:14;;;;;;;3.58;1.95;;;410.20;2355.20;;;;;;5036542;28;20029;-55
2022/05/21 00:30:40;;;;;;;3.20;2.10;;;410.10;2355.20;;;;;;5036480;28;20383;-54
2022/05/21 00:33:07;;;;;;;3.58;1.85;;;410.10;2355.20;;;;;;5036348;28;20037;-55
2022/05/21 00:35:33;;;;;;;3.30;2.00;;;410.10;2355.20;;;;;;5035933;28;20072;-55
2022/05/21 00:38:00;;;;;;;3.85;2.13;;;410.00;2355.20;;;;;;5036248;28;20471;-53
2022/05/21 00:40:27;;;;;;;4.97;2.10;;;409.90;2355.20;;;;;;5035934;28;20487;-54
2022/05/21 00:42:54;;;;;;;3.28;1.90;;;410.00;2355.20;;;;;;5036187;28;20030;-55
2022/05/21 00:45:19;;;;;;;4.50;2.55;;;410.20;2355.20;;;;;;5035941;28;20498;-55
2022/05/21 00:47:45;;;;;;;4.88;2.33;;;410.20;2355.20;;;;;;5035829;28;20034;-54
2022/05/21 00:50:16;;;;;;;4.63;2.03;;;410.20;2355.20;;;;;;5035767;28;20113;-57
2022/05/21 00:52:42;;;;;;;8.05;2.78;;;410.20;2355.20;;;;;;5035613;28;20037;-56
2022/05/21 00:55:23;;;;;;;2.60;1.70;;;410.20;2355.20;;;;;;5035649;28;20083;-56
2022/05/21 00:59:47;;;;;;;4.22;2.00;;;410.20;2355.20;;;;;;5035969;28;20057;-56
2022/05/21 01:00:41;;;;;;;2.70;1.85;;;410.30;2355.20;;;;;;5035508;28;20093;-55
2022/05/21 01:03:08;;;;;;;2.60;1.73;;;410.30;2355.20;;;;;;5035532;28;20025;-56
2022/05/21 01:05:37;;;;;;;5.28;2.47;;;410.30;2355.20;;;;;;5034540;28;20061;-55
2022/05/21 01:08:03;;;;;;;4.20;2.00;;;410.30;2355.20;;;;;;5032180;28;20430;-55
2022/05/21 01:10:34;;;;;;;3.33;2.40;;;410.30;2355.20;;;;;;5032992;28;20018;-55
2022/05/21 01:13:02;;;;;;;6.93;1.85;;;410.30;2355.20;;;;;;5032571;28;20072;-54
2022/05/21 01:15:34;;;;;;;4.15;2.40;;;410.40;2355.20;;;;;;5032645;28;20106;-56
2022/05/21 01:18:00;;;;;;;4.22;2.30;;;410.50;2355.20;;;;;;5032734;28;20033;-55
2022/05/21 01:20:37;;;;;;;3.90;2.20;;;410.40;2355.20;;;;;;5032342;28;20065;-56
2022/05/21 01:23:03;;;;;;;5.32;2.20;;;410.40;2355.20;;;;;;5032168;28;20049;-56
2022/05/21 01:25:31;;;;;;;3.85;2.20;;;410.30;2355.20;;;;;;5032176;28;20049;-55
2022/05/21 01:27:58;;;;;;;3.00;1.85;;;410.30;2355.20;;;;;;5032436;28;20029;-54
2022/05/21 01:30:38;;;;;;;2.90;1.90;;;410.30;2355.20;;;;;;5032326;28;20406;-56
2022/05/21 01:33:05;;;;;;;3.28;1.83;;;410.30;2355.20;;;;;;5032221;28;20044;-56
2022/05/21 01:35:32;;;;;;;5.03;1.92;;;410.30;2355.20;;;;;;5032143;28;20021;-56
2022/05/21 01:37:58;;;;;;;4.40;2.00;;;410.20;2355.20;;;;;;5032270;28;20032;-56
2022/05/21 01:40:24;;;;;;;4.20;2.28;;;410.20;2355.20;;;;;;5031852;28;20028;-55
2022/05/21 01:45:34;;;;;;;3.33;2.10;;;410.30;2355.20;;;;;;5031854;28;20024;-56
2022/05/21 01:48:02;;;;;;;3.15;1.77;;;410.30;2355.20;;;;;;5031991;28;20037;-56
2022/05/21 01:50:28;;;;;;;3.88;2.08;;;410.20;2355.20;;;;;;5032140;28;20029;-56
2022/05/21 01:52:53;;;;;;;3.25;1.98;;;410.20;2355.20;;;;;;5031644;28;20113;-54
2022/05/21 01:55:19;;;;;;;2.72;1.75;;;410.20;2355.20;;;;;;5031886;28;20368;-57
2022/05/21 01:57:45;;;;;;;3.67;2.08;;;410.40;2355.20;;;;;;5032077;28;20064;-55
2022/05/21 02:00:12;;;;;;;4.65;2.55;;;410.40;2355.20;;;;;;5031798;28;20529;-55
2022/05/21 02:02:37;;;;;;;4.53;2.47;;;410.30;2355.20;;;;;;5031796;28;20467;-55
2022/05/21 02:05:03;;;;;;;3.65;2.30;;;410.20;2355.20;;;;;;5031359;28;20026;-55
2022/05/21 02:07:29;;;;;;;3.30;2.38;;;410.20;2355.20;;;;;;5031825;28;20057;-55
2022/05/21 02:09:55;;;;;;;3.67;2.08;;;410.20;2355.20;;;;;;5031305;28;20075;-55
2022/05/21 02:12:21;;;;;;;3.25;1.75;;;410.10;2355.20;;;;;;5031622;28;20048;-56
2022/05/21 02:14:47;;;;;;;3.22;2.08;;;409.90;2355.20;;;;;;5031365;28;20037;-55
2022/05/21 02:17:15;;;;;;;4.30;2.00;;;409.90;2355.20;;;;;;5031128;28;20025;-56
2022/05/21 02:19:40;;;;;;;3.50;1.83;;;409.90;2355.20;;;;;;5030950;28;20026;-56
2022/05/21 02:22:06;;;;;;;4.63;1.88;;;409.80;2355.20;;;;;;5031392;28;20021;-55
2022/05/21 02:24:32;;;;;;;3.25;1.95;;;409.90;2355.20;;;;;;5030756;28;20508;-55
2022/05/21 02:26:57;;;;;;;3.25;2.25;;;409.90;2355.20;;;;;;5031371;28;20026;-55
2022/05/21 02:29:23;;;;;;;4.78;2.00;;;409.80;2355.20;;;;;;5031199;28;20028;-56
2022/05/21 02:31:51;;;;;;;4.03;2.03;;;409.80;2355.20;;;;;;5031308;28;20037;-56
2022/05/21 02:34:17;;;;;;;3.17;1.70;;;409.90;2355.20;;;;;;5031137;28;20028;-55
2022/05/21 02:39:28;;;;;;;3.60;2.25;;;409.90;2355.20;;;;;;5031037;28;20037;-56
2022/05/21 02:41:56;;;;;;;4.38;2.03;;;409.90;2355.20;;;;;;5031010;28;20406;-56
2022/05/21 02:44:21;;;;;;;2.78;1.73;;;409.90;2355.20;;;;;;5030749;28;20095;-56
2022/05/21 02:46:47;;;;;;;2.72;1.83;;;409.90;2355.20;;;;;;5031126;28;20025;-56
2022/05/21 02:49:13;;;;;;;3.75;2.20;;;409.80;2355.20;;;;;;5030562;28;20030;-55
2022/05/21 02:51:39;;;;;;;3.65;1.98;;;409.70;2355.20;;;;;;5030831;28;20091;-55
2022/05/21 02:54:06;;;;;;;3.92;2.13;;;409.60;2355.20;;;;;;5030270;28;20057;-56
2022/05/21 02:56:35;;;;;;;5.03;2.08;;;384.90;2329.60;;;;;;5030684;28;20029;-56
2022/05/21 02:59:01;;;;;;;3.95;2.03;;;384.70;2329.60;;;;;;5030756;28;20091;-56
2022/05/21 03:01:27;;;;;;;3.70;2.25;;;384.70;2329.60;;;;;;5030628;28;20096;-56
2022/05/21 03:03:52;;;;;;;4.15;2.40;;;384.80;2329.60;;;;;;5030636;28;20131;-56
2022/05/21 03:06:18;;;;;;;3.30;2.10;;;384.90;2329.60;;;;;;5030733;28;20025;-55
2022/05/21 03:11:28;;;;;;;3.60;2.13;;;409.60;2355.20;;;;;;5030865;28;20461;-55
2022/05/21 03:13:53;;;;;;;4.85;2.45;;;409.70;2355.20;;;;;;5030527;28;20026;-56
2022/05/21 03:16:19;;;;;;;3.92;2.20;;;409.80;2355.20;;;;;;5030433;28;20056;-56
2022/05/21 03:18:45;;;;;;;4.90;2.53;;;409.80;2355.20;;;;;;5030596;28;20029;-56
2022/05/21 03:21:13;;;;;;;3.45;2.05;;;409.70;2355.20;;;;;;5011884;28;20033;-57
2022/05/21 03:23:39;;;;;;;5.82;2.30;;;409.80;2355.20;;;;;;5030389;28;20034;-56
2022/05/21 03:26:05;;;;;;;3.15;2.20;;;409.60;2355.20;;;;;;5029995;28;20061;-56
2022/05/21 03:28:32;;;;;;;3.53;2.13;;;409.60;2355.20;;;;;;5030107;28;20030;-56
2022/05/21 03:30:57;;;;;;;3.72;2.30;;;409.60;2355.20;;;;;;5030199;28;20026;-56
2022/05/21 03:33:23;;;;;;;4.75;2.67;;;409.70;2355.20;;;;;;5030110;28;20040;-56
2022/05/21 03:35:49;;;;;;;3.67;2.33;;;409.90;2355.20;;;;;;5030439;28;20690;-56
2022/05/21 03:38:18;;;;;;;3.17;1.98;;;409.90;2355.20;;;;;;5029969;28;20356;-56
2022/05/21 03:40:45;;;;;;;3.65;2.13;;;410.00;2355.20;;;;;;5030022;28;20033;-55
2022/05/21 03:43:11;;;;;;;5.20;2.58;;;410.20;2355.20;;;;;;5030149;28;20106;-57
2022/05/21 03:45:36;;;;;;;4.13;2.50;;;410.40;2355.20;;;;;;5030372;28;20058;-56
2022/05/21 03:48:05;;;;;;;3.90;2.30;;;410.50;2355.20;;;;;;5029865;28;20474;-56
2022/05/21 03:50:32;;;;;;;3.75;2.40;;;435.20;2355.20;;;;;;5029764;28;20041;-57
2022/05/21 03:52:59;;;;;;;3.65;2.33;;;435.30;2355.20;;;;;;5029983;28;20037;-54
2022/05/21 03:55:25;;;;;;;6.82;2.75;;;435.30;2355.20;;;;;;5029766;28;20372;-53
2022/05/21 03:57:51;;;;;;;12.30;6.15;;;435.40;2355.20;;;;;;5030020;28;20072;-56
2022/05/21 04:00:19;;;;;;;19.17;9.05;;;435.50;2355.20;;;;;;5030102;28;20476;-56
2022/05/21 04:02:45;;;;;;;12.20;6.85;;;435.60;2355.20;;;;;;5029928;28;20372;-56
2022/05/21 04:05:12;;;;;;;9.20;5.28;;;435.70;2355.20;;;;;;5030114;28;20067;-56
2022/05/21 04:07:39;;;;;;;10.45;5.82;;;435.90;2355.20;;;;;;5029735;28;20044;-56
2022/05/21 04:10:06;;;;;;;6.05;4.05;;;435.90;2355.20;;;;;;5029663;28;20026;-55
2022/05/21 04:12:32;;;;;;;8.90;4.85;;;436.00;2355.20;;;;;;5029464;28;20069;-55
2022/05/21 04:14:58;;;;;;;4.35;2.53;;;436.10;2355.20;;;;;;5029666;28;20029;-55
2022/05/21 04:17:24;;;;;;;7.38;3.83;;;436.10;2355.20;;;;;;5029687;28;20026;-56
2022/05/21 04:19:49;;;;;;;7.75;4.60;;;460.80;2380.80;;;;;;5030075;28;20034;-56
2022/05/21 04:22:15;;;;;;;6.63;4.10;;;460.80;2380.80;;;;;;5029669;28;20387;-55
2022/05/21 04:24:41;;;;;;;8.32;4.40;;;461.00;2380.80;;;;;;5029347;28;20053;-57
2022/05/21 04:27:09;;;;;;;8.85;3.90;;;461.10;2380.80;;;;;;5030139;28;20057;-56
2022/05/21 04:29:36;;;;;;;5.22;3.45;;;461.30;2380.80;;;;;;5029430;28;20459;-56
2022/05/21 04:32:02;;;;;;;6.30;3.67;;;461.40;2380.80;;;;;;5029358;28;20036;-56
2022/05/21 04:34:28;;;;;;;8.68;4.82;;;461.50;2380.80;;;;;;5029549;28;20117;-56
2022/05/21 04:36:54;;;;;;;10.50;5.70;;;461.70;2380.80;;;;;;5029205;28;20049;-56
2022/05/21 04:39:20;;;;;;;6.47;4.45;;;486.50;2380.80;;;;;;5029877;28;20049;-56
2022/05/21 04:41:46;;;;;;;4.78;3.05;;;512.00;2380.80;;;;;;5029588;28;20499;-55
2022/05/21 04:44:11;;;;;;;4.05;2.97;;;512.20;2355.20;;;;;;5032895;28;20113;-56
2022/05/21 04:46:37;;;;;;;3.90;2.67;;;614.70;1843.20;;;;;;5033308;28;20037;-55
2022/05/21 04:49:04;;;;;;;3.78;2.80;;;666.50;1510.40;;;;;;5032900;28;20422;-56
2022/05/21 04:51:31;;;;;;;3.53;2.72;;;717.40;1382.40;;;;;;5027035;28;20380;-55
2022/05/21 04:53:56;;;;;;;4.18;2.92;;;768.40;1280.00;;;;;;5026616;28;20056;-55
2022/05/21 04:56:23;;;;;;;5.13;3.05;;;794.40;1203.20;;;;;;5032547;28;20053;-55
2022/05/21 04:58:49;;;;;;;4.38;2.97;;;819.90;1152.00;;;;;;5032734;28;20029;-55
2022/05/21 05:01:14;;;;;;;4.13;3.40;;;845.50;1100.80;;;;;;5032766;28;20021;-55
2022/05/21 05:03:40;;;;;;;5.20;3.38;;;871.00;1049.60;;;;;;5032698;28;20052;-55
2022/05/21 05:06:06;;;;;;;3.83;3.42;;;896.40;998.40;;;;;;5032613;28;20080;-57
2022/05/21 05:08:32;;;;;;;5.03;3.63;;;921.80;998.40;;;;;;5025447;28;20025;-57
2022/05/21 05:10:58;;;;;;;4.28;3.88;;;947.60;947.20;;;;;;5012652;28;20034;-55
2022/05/21 05:13:23;;;;;;;4.80;4.10;;;948.00;921.60;;;;;;5012663;28;20034;-55
2022/05/21 05:15:49;;;;;;;4.45;4.05;;;972.80;947.20;;;;;;5012887;28;20025;-55
2022/05/21 05:18:18;;;;;;;4.75;4.28;;;973.50;921.60;;;;;;5012698;28;20045;-56
2022/05/21 05:20:43;;;;;;;4.95;3.90;;;998.70;921.60;;;;;;5012390;28;20100;-56
2022/05/21 05:23:10;;;;;;;4.65;3.90;;;972.80;947.20;;;;;;5012474;28;20160;-56
2022/05/21 05:25:37;;;;;;;5.03;3.50;;;947.20;947.20;;;;;;5012058;28;20130;-56
2022/05/21 05:28:03;;;;;;;6.40;3.88;;;922.50;972.80;;;;;;5012140;28;20088;-57
2022/05/21 05:30:29;;;;;;;5.15;4.45;;;922.30;972.80;;;;;;5012490;28;20022;-55
2022/05/21 05:32:54;;;;;;;6.60;4.13;;;922.50;972.80;;;;;;5012128;28;20045;-57
2022/05/21 05:35:21;;;;;;;4.45;4.00;;;947.80;947.20;;;;;;5012416;28;20030;-57
2022/05/21 05:37:46;;;;;;;4.63;4.22;;;947.30;947.20;;;;;;5012257;28;20113;-56
2022/05/21 05:40:19;;;;;;;4.70;3.97;;;948.00;947.20;;;;;;5011989;28;20105;-56
2022/05/21 05:42:45;;;;;;;4.28;3.92;;;948.00;972.80;;;;;;5012172;28;20541;-57
2022/05/21 05:45:12;;;;;;;4.32;3.92;;;973.40;947.20;;;;;;5012239;28;20037;-57
2022/05/21 05:47:38;;;;;;;5.28;4.68;;;973.40;947.20;;;;;;5012214;28;20349;-57
2022/05/21 05:50:05;;;;;;;4.38;4.03;;;973.70;947.20;;;;;;5011724;28;20032;-56
2022/05/21 05:52:31;;;;;;;5.18;4.68;;;973.70;947.20;;;;;;5011816;28;20038;-57
2022/05/21 05:54:56;;;;;;;5.03;4.60;;;998.50;947.20;;;;;;5010634;28;20096;-56
2022/05/21 05:57:23;;;;;;;5.78;5.28;;;999.00;947.20;;;;;;5011818;28;20460;-57
2022/05/21 05:59:50;;;;;;;4.80;4.40;;;1024.00;921.60;;;;;;5011958;28;20014;-57
2022/05/21 06:05:18;;;;;;;5.25;4.75;;;1049.70;921.60;;;;;;5011872;28;20083;-56
2022/05/21 06:07:50;;;;;;;5.70;5.20;;;1050.50;921.60;;;;;;5011399;28;20444;-57
2022/05/21 06:10:18;;;;;;;4.68;4.15;;;1075.50;896.00;;;;;;5011710;28;20026;-57
2022/05/21 06:12:44;;;;;;;5.65;5.15;;;1050.00;947.20;;;;;;5011545;28;20484;-58
2022/05/21 06:15:11;;;;;;;5.18;4.78;;;1050.20;921.60;;;;;;5011606;28;20037;-56
2022/05/21 06:17:38;;;;;;;5.88;5.38;;;1050.40;921.60;;;;;;5011559;28;20037;-57
2022/05/21 06:20:06;;;;;;;5.88;5.38;;;1050.40;921.60;;;;;;5011225;28;20030;-57
2022/05/21 06:22:32;;;;;;;6.07;5.57;;;1050.10;921.60;;;;;;5011102;28;20030;-57
2022/05/21 06:24:59;;;;;;;6.03;5.53;;;1049.70;947.20;;;;;;5011178;28;20054;-57
2022/05/21 06:27:25;;;;;;;6.75;5.97;;;1024.60;947.20;;;;;;5011372;28;20042;-57
2022/05/21 06:29:50;;;;;;;6.18;5.60;;;1049.60;947.20;;;;;;5011557;28;20396;-57
2022/05/21 06:32:16;;;;;;;6.60;5.97;;;1050.40;896.00;;;;;;5011285;28;20038;-56
2022/05/21 06:34:42;;;;;;;6.50;6.00;;;1075.60;896.00;;;;;;5011031;28;20058;-57
2022/05/21 06:37:10;;;;;;;6.50;5.95;;;1075.80;870.40;;;;;;5011204;28;20022;-57
2022/05/21 06:39:38;;;;;;;6.32;5.93;;;1075.90;819.20;;;;;;5010993;28;20380;-57
2022/05/21 06:42:04;;;;;;;6.43;5.93;;;1075.70;870.40;;;;;;5010881;28;20030;-57
2022/05/21 06:44:30;;;;;;;6.10;5.53;;;1075.90;844.80;;;;;;5011116;28;20022;-57
2022/05/21 06:46:57;;;;;;;7.68;7.07;;;1101.20;844.80;;;;;;5010922;28;20030;-56
2022/05/21 06:49:23;;;;;;;6.90;6.40;;;1101.60;844.80;;;;;;5010838;28;20030;-56
2022/05/21 06:51:57;;;;;;;7.70;7.13;;;1127.30;819.20;;;;;;5010938;28;20022;-57
2022/05/21 06:54:23;;;;;;;7.22;6.72;;;1152.60;793.60;;;;;;5010440;28;20459;-58
2022/05/21 06:56:49;;;;;;;7.25;6.82;;;1152.70;768.00;;;;;;5010924;28;20042;-56
2022/05/21 06:59:16;;;;;;;6.82;6.43;;;1152.70;793.60;;;;;;5010700;28;20428;-57
2022/05/21 07:01:42;;;;;;;8.02;7.43;;;1177.80;768.00;;;;;;5010615;28;20113;-56
2022/05/21 07:04:09;;;;;;;9.00;8.43;;;1178.20;742.40;;;;;;5010718;28;20050;-57
2022/05/21 07:09:21;;;;;;;8.20;7.70;;;1177.80;793.60;;;;;;5011060;28;20033;-56
2022/05/21 07:11:48;;;;;;;8.70;8.20;;;1203.20;742.40;;;;;;5010671;28;20029;-57
2022/05/21 07:14:14;;;;;;;8.70;8.18;;;1203.80;742.40;;;;;;5010495;28;20105;-57
2022/05/21 07:16:40;;;;;;;9.18;8.38;;;1229.40;716.80;;;;;;5010638;28;20088;-55
2022/05/21 07:19:07;;;;;;;9.35;8.75;;;1229.40;691.20;;;;;;5010267;28;20469;-56
2022/05/21 07:21:33;;;;;;;9.32;8.80;;;1254.60;716.80;;;;;;4992426;28;20089;-57
2022/05/21 07:23:59;;;;;;;9.13;8.43;;;1229.70;691.20;;;;;;5010394;28;20028;-57
2022/05/21 07:26:25;;;;;;;9.50;8.90;;;1254.90;691.20;;;;;;5010032;28;20045;-57
2022/05/21 07:28:51;;;;;;;9.60;9.00;;;1254.40;716.80;;;;;;5010297;28;20021;-57
2022/05/21 07:31:17;;;;;;;9.48;8.90;;;1255.10;691.20;;;;;;5010532;28;20098;-56
2022/05/21 07:33:44;;;;;;;9.85;9.15;;;1254.90;716.80;;;;;;5010024;28;20050;-56
2022/05/21 07:36:10;;;;;;;9.95;9.35;;;1254.90;716.80;;;;;;5010233;28;20399;-56
2022/05/21 07:38:36;;;;;;;9.48;8.88;;;1254.90;716.80;;;;;;5010146;28;20030;-56
2022/05/21 07:41:02;;;;;;;10.38;9.77;;;1255.10;716.80;;;;;;5009990;28;20113;-57
2022/05/21 07:43:30;;;;;;;10.20;9.60;;;1280.50;665.60;;;;;;5010142;28;20076;-56
2022/05/21 07:45:57;;;;;;;10.15;9.55;;;1280.70;665.60;;;;;;5010123;28;20028;-55
2022/05/21 07:48:23;;;;;;;10.65;9.95;;;1280.00;665.60;;;;;;5010018;28;20022;-57
2022/05/21 07:50:52;;;;;;;10.88;10.18;;;1280.00;691.20;;;;;;5010450;28;20019;-56
2022/05/21 07:53:20;;;;;;;10.27;9.68;;;1255.10;742.40;;;;;;5009969;28;20049;-57
2022/05/21 07:55:48;;;;;;;9.80;9.20;;;1280.40;665.60;;;;;;5010285;28;20029;-59
2022/05/21 07:58:15;;;;;;;10.55;9.73;;;1255.30;716.80;;;;;;5010093;28;20352;-58
2022/05/21 08:00:41;;;;;;;10.07;9.48;;;1254.80;691.20;;;;;;5010299;28;20029;-57
2022/05/21 08:03:10;;;;;;;10.02;9.43;;;1254.60;691.20;;;;;;5009985;28;20021;-57
2022/05/21 08:05:38;;;;;;;10.30;9.60;;;1254.50;691.20;;;;;;5009858;28;20361;-56
2022/05/21 08:08:04;;;;;;;10.00;9.40;;;1254.80;665.60;;;;;;5009971;28;20169;-59
2022/05/21 08:10:30;;;;;;;11.90;11.20;;;1228.80;691.20;;;;;;5010052;28;20111;-57
2022/05/21 08:12:56;;;;;;;23.45;21.20;;;1178.50;665.60;;;;;;5009818;28;20069;-57
2022/05/21 08:15:22;;;;;;;10.60;9.70;;;1177.70;691.20;;;;;;5009778;28;20022;-56
2022/05/21 08:17:48;;;;;;;8.80;8.20;;;1152.10;742.40;;;;;;5011829;28;20045;-57
2022/05/21 08:20:16;;;;;;;6.63;6.13;;;1075.30;768.00;;;;;;5013810;28;20052;-57
2022/05/21 08:28:13;;;;;;;5.07;4.57;;;947.20;896.00;;;;;;5013367;28;20126;-57
2022/05/21 08:30:40;;;;;;;6.10;4.30;;;922.30;921.60;;;;;;5013556;28;20029;-56
2022/05/21 08:33:07;;;;;;;3.95;3.53;;;921.90;947.20;;;;;;5013179;28;20438;-56
2022/05/21 08:35:34;;;;;;;4.10;3.33;;;921.80;947.20;;;;;;5013475;28;20022;-56
2022/05/21 08:38:00;;;;;;;3.92;3.60;;;896.80;921.60;;;;;;5013372;28;20479;-56
2022/05/21 08:40:45;;;;;;;3.65;3.20;;;896.20;972.80;;;;;;5013199;28;20105;-56
2022/05/21 08:43:20;;;;;;;6.82;3.70;;;896.40;947.20;;;;;;5013266;28;20038;-56
2022/05/21 08:46:04;;;;;;;4.18;3.67;;;896.10;947.20;;;;;;5013059;28;20022;-56
2022/05/21 08:48:32;;;;;;;4.18;3.78;;;871.10;1024.00;;;;;;5013094;28;20029;-56
2022/05/21 08:50:59;;;;;;;5.25;3.03;;;871.10;998.40;;;;;;5012863;28;20029;-56
2022/05/21 08:53:27;;;;;;;5.35;3.55;;;871.10;972.80;;;;;;5012525;28;20417;-56
2022/05/21 08:55:58;;;;;;;5.10;2.85;;;871.10;972.80;;;;;;5012934;28;20199;-56
2022/05/21 08:58:43;;;;;;;5.53;3.88;;;870.80;1049.60;;;;;;5012929;28;20132;-56
2022/05/21 09:01:15;;;;;;;5.10;3.78;;;870.70;1049.60;;;;;;5013190;28;20026;-56
2022/05/21 09:03:40;;;;;;;4.68;4.15;;;870.70;1024.00;;;;;;5013115;28;20034;-56
2022/05/21 09:06:20;;;;;;;6.00;4.05;;;870.50;1024.00;;;;;;5012972;28;20053;-56
2022/05/21 09:09:18;;;;;;;3.90;3.40;;;845.60;1024.00;;;;;;5012920;28;20460;-55
2022/05/21 09:11:48;;;;;;;4.55;3.47;;;845.00;1049.60;;;;;;5012858;28;20360;-56
2022/05/21 09:14:32;;;;;;;4.20;3.22;;;844.90;1075.20;;;;;;5012725;28;20041;-56
2022/05/21 09:17:00;;;;;;;4.70;3.13;;;844.80;1075.20;;;;;;5012696;28;20105;-55
2022/05/21 09:19:33;;;;;;;4.25;3.65;;;844.80;1075.20;;;;;;5012550;28;20041;-56
2022/05/21 09:22:09;;;;;;;4.82;3.25;;;820.10;1049.60;;;;;;5012704;28;20037;-56
2022/05/21 09:24:44;;;;;;;4.85;3.53;;;819.90;1075.20;;;;;;5012526;28;20449;-56
2022/05/21 09:27:33;;;;;;;5.97;3.55;;;819.60;1100.80;;;;;;5012510;28;20400;-56
2022/05/21 09:30:23;;;;;;;5.38;3.25;;;819.30;1126.40;;;;;;5012322;28;20021;-56
2022/05/21 09:32:52;;;;;;;5.47;4.18;;;794.50;1126.40;;;;;;5012655;28;20034;-55
2022/05/21 09:35:24;;;;;;;4.72;3.63;;;819.30;1152.00;;;;;;5012749;28;20076;-56
2022/05/21 09:37:50;;;;;;;3.58;3.13;;;819.30;1152.00;;;;;;5012266;28;20376;-56
2022/05/21 09:40:36;;;;;;;3.78;3.38;;;819.30;1152.00;;;;;;5012175;28;20038;-56
2022/05/21 09:46:15;;;;;;;5.28;2.92;;;819.30;1152.00;;;;;;5012520;28;20444;-73
2022/05/21 09:48:40;;;;;;;5.93;3.30;;;819.30;1152.00;;;;;;5012390;28;20072;-61
2022/05/21 09:51:24;;;;;;;3.90;3.50;;;819.30;1152.00;;;;;;5011981;28;20030;-61
2022/05/21 09:53:50;;;;;;;4.22;3.50;;;819.30;1152.00;;;;;;5011855;28;20534;-62
2022/05/21 09:56:22;;;;;;;6.07;3.88;;;819.20;1152.00;;;;;;5011862;28;20054;-61
2022/05/21 09:58:51;;;;;;;7.72;3.38;;;819.40;1177.60;;;;;;5011868;28;20022;-60
2022/05/21 10:01:41;;;;;;;4.68;3.20;;;794.50;1203.20;;;;;;5011877;28;20033;-62
2022/05/21 10:04:24;;;;;;;5.05;3.30;;;794.50;1203.20;;;;;;5011906;28;20037;-61
2022/05/21 10:07:13;;;;;;;4.25;3.80;;;794.40;1203.20;;;;;;5012002;28;20117;-61
2022/05/21 10:12:43;;;;;;;6.18;3.75;;;794.40;1203.20;;;;;;4913081;29;20200;-60
2022/05/21 10:15:23;;;;;;;5.80;3.35;;;794.30;1228.80;;;;;;4897599;29;20415;-61
2022/05/21 10:18:01;;;;;;;3.97;3.42;;;794.20;1203.20;;;;;;4913138;29;20112;-62
2022/05/21 10:20:35;;;;;;;4.25;3.47;;;794.00;1228.80;;;;;;4912933;29;20119;-61
2022/05/21 10:23:34;;;;;;;6.95;3.65;;;794.10;1228.80;;;;;;4912763;29;20658;-61
2022/05/21 10:26:35;;;;;;;6.15;3.58;;;794.00;1228.80;;;;;;4899381;29;20184;-61
2022/05/21 10:29:29;;;;;;;6.05;3.80;;;793.80;1254.40;;;;;;4894253;29;20530;-61
2022/05/21 10:32:14;;;;;;;7.40;3.63;;;793.80;1254.40;;;;;;4893787;29;20116;-61
2022/05/21 10:35:10;;;;;;;5.88;3.70;;;793.80;1254.40;;;;;;4893924;29;20070;-61
2022/05/21 10:38:01;;;;;;;8.60;4.35;;;793.90;1254.40;;;;;;4893566;29;20036;-60
2022/05/21 10:40:45;;;;;;;5.05;3.47;;;793.90;1280.00;;;;;;4893253;29;20118;-60
2022/05/21 10:43:21;;;;;;;4.82;4.13;;;793.70;1254.40;;;;;;4893886;29;20148;-61
2022/05/21 10:46:25;;;;;;;4.78;3.65;;;793.80;1254.40;;;;;;4907053;28;20055;-61
2022/05/21 10:49:29;;;;;;;5.20;3.90;;;768.90;1254.40;;;;;;4991331;28;20034;-61
2022/05/21 10:52:03;;;;;;;5.53;3.75;;;768.90;1280.00;;;;;;4977959;28;20542;-61
2022/05/21 10:54:47;;;;;;;8.70;4.30;;;768.90;1254.40;;;;;;4991216;28;20035;-61
2022/05/21 10:57:34;;;;;;;4.65;3.95;;;793.70;1331.20;;;;;;4991026;28;20035;-61
2022/05/21 11:00:05;;;;;;;4.20;3.60;;;793.70;1305.60;;;;;;4991527;28;20085;-61
2022/05/21 11:02:58;;;;;;;10.65;4.88;;;793.70;1280.00;;;;;;4991256;28;20030;-61
2022/05/21 11:05:45;;;;;;;4.40;3.95;;;768.90;1254.40;;;;;;4991149;28;20030;-61
2022/05/21 11:08:17;;;;;;;5.82;4.10;;;768.90;1280.00;;;;;;4991165;28;20022;-61
2022/05/21 11:11:13;;;;;;;4.60;3.47;;;768.80;1254.40;;;;;;4990418;28;20113;-60
2022/05/21 11:14:00;;;;;;;3.95;3.55;;;768.70;1254.40;;;;;;5001714;28;20388;-62
2022/05/21 11:16:43;;;;;;;6.78;4.85;;;768.90;1280.00;;;;;;5001101;28;20425;-61
2022/05/21 11:19:22;;;;;;;6.43;4.10;;;793.60;1280.00;;;;;;5000246;28;20137;-61
2022/05/21 11:21:58;;;;;;;6.55;4.00;;;768.90;1280.00;;;;;;5000763;28;20030;-61
2022/05/21 11:24:50;;;;;;;4.30;3.33;;;768.90;1280.00;;;;;;4994096;28;20106;-60
2022/05/21 11:27:24;;;;;;;5.10;3.90;;;768.90;1280.00;;;;;;5010667;28;20447;-61
2022/05/21 11:30:12;;;;;;;5.88;3.80;;;768.90;1305.60;;;;;;5008922;28;20022;-61
2022/05/21 11:38:29;;;;;;;4.63;3.50;;;768.70;1254.40;;;;;;5011406;28;20475;-60
2022/05/21 11:43:54;;;;;;;4.40;3.30;;;768.90;1305.60;;;;;;5013687;28;20036;-61
2022/05/21 11:46:33;;;;;;;6.93;4.50;;;793.70;1331.20;;;;;;5008686;28;20022;-58
2022/05/21 11:49:34;;;;;;;6.20;4.65;;;793.60;1331.20;;;;;;5010111;28;20068;-61
2022/05/21 11:52:30;;;;;;;7.97;4.80;;;793.70;1331.20;;;;;;5012394;28;20040;-60
2022/05/21 11:55:29;;;;;;;4.95;4.45;;;793.70;1331.20;;;;;;5013859;28;20068;-61
2022/05/21 11:57:59;;;;;;;6.07;4.05;;;793.70;1331.20;;;;;;5013947;28;20133;-61
2022/05/21 12:00:24;;;;;;;5.55;4.32;;;793.80;1331.20;;;;;;5013849;28;20119;-59
2022/05/21 12:02:53;;;;;;;5.45;4.20;;;793.70;1331.20;;;;;;5013913;28;20061;-60
2022/05/21 12:05:37;;;;;;;6.60;4.13;;;793.60;1305.60;;;;;;5014091;28;20026;-59
2022/05/21 12:08:22;;;;;;;4.40;3.97;;;793.70;1305.60;;;;;;5012052;28;20052;-59
2022/05/21 12:11:04;;;;;;;6.18;3.80;;;793.60;1305.60;;;;;;5012331;28;20022;-60
2022/05/21 12:13:33;;;;;;;5.45;4.68;;;793.60;1305.60;;;;;;5012523;28;20121;-59
2022/05/21 12:16:20;;;;;;;4.30;3.75;;;793.70;1305.60;;;;;;5012296;28;20030;-59
2022/05/21 12:19:00;;;;;;;7.10;4.20;;;793.90;1331.20;;;;;;4995462;28;20069;-59
2022/05/21 12:21:30;;;;;;;5.15;4.13;;;794.00;1331.20;;;;;;5011975;28;20096;-59
2022/05/21 12:23:58;;;;;;;4.35;3.70;;;794.00;1331.20;;;;;;5011759;28;20033;-60
2022/05/21 12:26:35;;;;;;;4.65;3.67;;;794.00;1305.60;;;;;;5011812;28;20050;-60
2022/05/21 12:29:26;;;;;;;4.93;3.63;;;794.10;1305.60;;;;;;5011961;28;20030;-61
2022/05/21 12:31:55;;;;;;;5.68;3.65;;;794.00;1305.60;;;;;;5011115;28;20084;-60
2022/05/21 12:35:00;;;;;;;4.85;4.28;;;794.20;1331.20;;;;;;5011730;28;20088;-59
2022/05/21 12:37:51;;;;;;;4.93;4.20;;;794.20;1305.60;;;;;;5011508;28;20034;-60
2022/05/21 12:40:45;;;;;;;4.80;3.95;;;794.40;1305.60;;;;;;4912587;29;20072;-59
2022/05/21 12:43:13;;;;;;;5.55;4.40;;;794.40;1305.60;;;;;;4856755;29;20042;-59
2022/05/21 12:45:47;;;;;;;5.30;3.95;;;794.20;1331.20;;;;;;4856215;29;20029;-59
2022/05/21 12:48:35;;;;;;;5.90;4.35;;;794.20;1280.00;;;;;;4859081;29;20034;-59
2022/05/21 12:51:08;;;;;;;6.35;4.65;;;794.10;1305.60;;;;;;4858625;29;20038;-60
2022/05/21 12:53:52;;;;;;;4.43;3.80;;;794.20;1331.20;;;;;;4857886;29;20555;-60
2022/05/21 12:56:25;;;;;;;5.30;4.05;;;794.20;1305.60;;;;;;4858453;29;20053;-60
2022/05/21 12:59:16;;;;;;;4.72;3.88;;;794.20;1305.60;;;;;;4858383;29;20114;-59
2022/05/21 13:02:13;;;;;;;6.60;4.53;;;794.40;1331.20;;;;;;4858079;29;20038;-59
2022/05/21 13:04:42;;;;;;;4.82;4.07;;;794.40;1305.60;;;;;;4857279;29;20583;-59
2022/05/21 13:07:10;;;;;;;8.77;4.10;;;794.20;1305.60;;;;;;4858252;29;20041;-59
2022/05/21 13:09:38;;;;;;;5.95;4.30;;;793.90;1305.60;;;;;;4857923;29;20037;-61
2022/05/21 13:12:13;;;;;;;4.78;3.70;;;793.80;1331.20;;;;;;4857831;29;20116;-59